Orange Hope — JD2027 — position and weather

sailwx.info

Track history (hours):
 
Tides and Currents Weather Stations Pressure Air Temp Water Temp Dewpoint Dewpoint Depression Visibility Wind Speed Wind Dir Waves Ship Positions

Orange Hope

Last reported at 2018-Feb-20 13:00 UTC. Time now 2018-Feb-20 13:23 UTC.
Position N 34°37' E 134°60'.

Length 180 m; draft 6.5 m.

Type: Passenger vessel. MMSI: 431501801.

Date/timePositionNaut miles runAvg speedWind from/ knotsBaromVisibWave heightAir tempDewpointWater temp
2018-Feb-20 13:00N 34°37' E 134°60'918.3
2018-Feb-20 12:30N 34°33' E 134°50'1019.7
2018-Feb-20 12:01N 34°29' E 134°39'1020.2
2018-Feb-20 11:31N 34°25' E 134°28'1019.4
2018-Feb-20 11:01N 34°23' E 134°16'13 0.9
2018-Feb-19 19:59N 34°26' E 134°01'714.6
2018-Feb-19 19:30N 34°26' E 134°09'918.6
2018-Feb-19 19:00N 34°25' E 134°20'1020.6
2018-Feb-19 18:31N 34°29' E 134°32'1121.1
2018-Feb-19 18:00N 34°33' E 134°44'1020.6
2018-Feb-19 17:31N 34°36' E 134°55'918.9
2018-Feb-19 17:00N 34°36' E 135°07'1019.8
2018-Feb-19 16:31N 34°38' E 135°18'4 7.1
2018-Feb-19 16:00N 34°42' E 135°17'0 0.0
2018-Feb-19 15:30N 34°42' E 135°17'0 0.0
2018-Feb-19 15:00N 34°42' E 135°17'0 0.4
2018-Feb-19 14:30N 34°42' E 135°17'611.6
2018-Feb-19 14:00N 34°36' E 135°16'918.3
2018-Feb-19 13:31N 34°35' E 135°05'714.9
2018-Feb-19 13:00N 34°36' E 134°56'917.5
2018-Feb-19 12:30N 34°32' E 134°46'918.6
2018-Feb-19 12:00N 34°28' E 134°36'918.9
2018-Feb-19 11:30N 34°25' E 134°25'918.4
2018-Feb-19 11:00N 34°23' E 134°14'1116.1
2018-Feb-19 10:18N 34°25' E 134°01'  
2018-Feb-16 19:58N 34°26' E 134°01'715.8
2018-Feb-16 19:30N 34°25' E 134°10'919.3
2018-Feb-16 19:00N 34°25' E 134°22'1020.8
2018-Feb-16 18:30N 34°29' E 134°33'1020.7
2018-Feb-16 18:00N 34°33' E 134°45'1019.0
2018-Feb-16 17:30N 34°37' E 134°56'816.3
2018-Feb-16 17:00N 34°36' E 135°06'1020.2
2018-Feb-16 16:30N 34°38' E 135°18'4 8.1
2018-Feb-16 16:01N 34°42' E 135°17'0 0.0
2018-Feb-16 15:31N 34°42' E 135°17'0 0.0
2018-Feb-16 15:01N 34°42' E 135°17'0 0.1
2018-Feb-16 14:30N 34°42' E 135°17'510.3
2018-Feb-16 14:01N 34°37' E 135°18'918.4
2018-Feb-16 13:31N 34°35' E 135°07'816.6
2018-Feb-16 13:01N 34°37' E 134°57'917.7
2018-Feb-16 12:30N 34°33' E 134°48'1019.3
2018-Feb-16 12:00N 34°29' E 134°37'1020.5
2018-Feb-16 11:31N 34°25' E 134°25'1019.6
2018-Feb-16 11:01N 34°23' E 134°14'5 0.3
2018-Feb-15 19:37N 34°26' E 134°08'320.5
2018-Feb-15 19:29N 34°25' E 134°11'919.6
2018-Feb-15 19:00N 34°25' E 134°23'1020.7
2018-Feb-15 18:31N 34°29' E 134°34'1020.3
2018-Feb-15 18:00N 34°33' E 134°46'918.7
2018-Feb-15 17:31N 34°37' E 134°56'816.3
2018-Feb-15 17:00N 34°36' E 135°06'1020.1
2018-Feb-15 16:30N 34°38' E 135°18'4 8.3
2018-Feb-15 16:01N 34°42' E 135°17'0 0.0
2018-Feb-15 15:31N 34°42' E 135°17'0 0.0
2018-Feb-15 15:01N 34°42' E 135°17'0 0.0
2018-Feb-15 14:31N 34°42' E 135°17'3 5.9
2018-Feb-15 14:00N 34°39' E 135°19'815.5
2018-Feb-15 13:31N 34°35' E 135°11'918.2
2018-Feb-15 13:00N 34°37' E 135°00'1019.7
2018-Feb-15 12:30N 34°33' E 134°49'1019.6
2018-Feb-15 12:01N 34°29' E 134°38'1020.5
2018-Feb-15 11:30N 34°25' E 134°27'1019.6
2018-Feb-15 11:00N 34°23' E 134°15'13 0.9
2018-Feb-14 20:06N 34°25' E 133°59'113.4
2018-Feb-14 20:00N 34°26' E 134°01'816.0
2018-Feb-14 19:29N 34°25' E 134°11'919.8
2018-Feb-14 19:01N 34°25' E 134°22'1020.8
2018-Feb-14 18:31N 34°29' E 134°34'1020.4
2018-Feb-14 18:01N 34°33' E 134°45'1019.0
2018-Feb-14 17:30N 34°37' E 134°56'917.4
2018-Feb-14 17:00N 34°36' E 135°06'1019.9
2018-Feb-14 16:30N 34°38' E 135°18'4 7.8
2018-Feb-14 16:01N 34°42' E 135°17'0 0.0
2018-Feb-14 15:31N 34°42' E 135°17'0 0.0
2018-Feb-14 15:00N 34°42' E 135°17'0 0.4
2018-Feb-14 14:30N 34°42' E 135°17'611.3
2018-Feb-14 14:00N 34°36' E 135°18'918.1
2018-Feb-14 13:30N 34°34' E 135°07'816.9
2018-Feb-14 13:00N 34°37' E 134°58'1019.3
2018-Feb-14 12:30N 34°32' E 134°47'1019.6
2018-Feb-14 12:01N 34°29' E 134°36'1019.8
2018-Feb-14 11:30N 34°25' E 134°25'1019.0
2018-Feb-14 11:00N 34°24' E 134°13'10 0.6
2018-Feb-13 19:55N 34°27' E 134°02'717.4
2018-Feb-13 19:29N 34°25' E 134°11'1020.0
2018-Feb-13 19:01N 34°26' E 134°23'1020.7
2018-Feb-13 18:31N 34°29' E 134°34'1020.4
2018-Feb-13 18:01N 34°33' E 134°46'1019.3
2018-Feb-13 17:31N 34°37' E 134°57'917.8
2018-Feb-13 17:00N 34°36' E 135°08'1018.9
2018-Feb-13 16:30N 34°39' E 135°18'3 6.0
2018-Feb-13 16:00N 34°42' E 135°17'0 0.0
2018-Feb-13 15:31N 34°42' E 135°17'0 0.0
2018-Feb-13 15:01N 34°42' E 135°17'0 0.3
2018-Feb-13 14:31N 34°42' E 135°17'510.9
2018-Feb-13 14:00N 34°37' E 135°17'1019.2
2018-Feb-13 13:30N 34°34' E 135°06'815.0
2018-Feb-13 13:00N 34°36' E 134°57'918.1
2018-Feb-13 12:31N 34°32' E 134°47'918.9
2018-Feb-13 12:00N 34°28' E 134°36'1019.1
2018-Feb-13 11:30N 34°25' E 134°26'1019.2
2018-Feb-13 11:00N 34°24' E 134°14'  
Track history (hours):
 
Tides and Currents Weather Stations Pressure Air Temp Water Temp Dewpoint Dewpoint Depression Visibility Wind Speed Wind Dir Waves Ship Positions

Orange Hope

Last reported at 2018-Feb-20 13:00 UTC. Time now 2018-Feb-20 13:23 UTC.
Position N 34°37' E 134°60'.

Length 180 m; draft 6.5 m.

Type: Passenger vessel. MMSI: 431501801.

Date/timePositionNaut miles runAvg speedWind from/ knotsBaromVisibWave heightAir tempDewpointWater temp
2018-Feb-20 13:00N 34°37' E 134°60'918.3
2018-Feb-20 12:30N 34°33' E 134°50'1019.7
2018-Feb-20 12:01N 34°29' E 134°39'1020.2
2018-Feb-20 11:31N 34°25' E 134°28'1019.4
2018-Feb-20 11:01N 34°23' E 134°16'13 0.9
2018-Feb-19 19:59N 34°26' E 134°01'714.6
2018-Feb-19 19:30N 34°26' E 134°09'918.6
2018-Feb-19 19:00N 34°25' E 134°20'1020.6
2018-Feb-19 18:31N 34°29' E 134°32'1121.1
2018-Feb-19 18:00N 34°33' E 134°44'1020.6
2018-Feb-19 17:31N 34°36' E 134°55'918.9
2018-Feb-19 17:00N 34°36' E 135°07'1019.8
2018-Feb-19 16:31N 34°38' E 135°18'4 7.1
2018-Feb-19 16:00N 34°42' E 135°17'0 0.0
2018-Feb-19 15:30N 34°42' E 135°17'0 0.0
2018-Feb-19 15:00N 34°42' E 135°17'0 0.4
2018-Feb-19 14:30N 34°42' E 135°17'611.6
2018-Feb-19 14:00N 34°36' E 135°16'918.3
2018-Feb-19 13:31N 34°35' E 135°05'714.9
2018-Feb-19 13:00N 34°36' E 134°56'917.5
2018-Feb-19 12:30N 34°32' E 134°46'918.6
2018-Feb-19 12:00N 34°28' E 134°36'918.9
2018-Feb-19 11:30N 34°25' E 134°25'918.4
2018-Feb-19 11:00N 34°23' E 134°14'1116.1
2018-Feb-19 10:18N 34°25' E 134°01'  
2018-Feb-16 19:58N 34°26' E 134°01'715.8
2018-Feb-16 19:30N 34°25' E 134°10'919.3
2018-Feb-16 19:00N 34°25' E 134°22'1020.8
2018-Feb-16 18:30N 34°29' E 134°33'1020.7
2018-Feb-16 18:00N 34°33' E 134°45'1019.0
2018-Feb-16 17:30N 34°37' E 134°56'816.3
2018-Feb-16 17:00N 34°36' E 135°06'1020.2
2018-Feb-16 16:30N 34°38' E 135°18'4 8.1
2018-Feb-16 16:01N 34°42' E 135°17'0 0.0
2018-Feb-16 15:31N 34°42' E 135°17'0 0.0
2018-Feb-16 15:01N 34°42' E 135°17'0 0.1
2018-Feb-16 14:30N 34°42' E 135°17'510.3
2018-Feb-16 14:01N 34°37' E 135°18'918.4
2018-Feb-16 13:31N 34°35' E 135°07'816.6
2018-Feb-16 13:01N 34°37' E 134°57'917.7
2018-Feb-16 12:30N 34°33' E 134°48'1019.3
2018-Feb-16 12:00N 34°29' E 134°37'1020.5
2018-Feb-16 11:31N 34°25' E 134°25'1019.6
2018-Feb-16 11:01N 34°23' E 134°14'5 0.3
2018-Feb-15 19:37N 34°26' E 134°08'320.5
2018-Feb-15 19:29N 34°25' E 134°11'919.6
2018-Feb-15 19:00N 34°25' E 134°23'1020.7
2018-Feb-15 18:31N 34°29' E 134°34'1020.3
2018-Feb-15 18:00N 34°33' E 134°46'918.7
2018-Feb-15 17:31N 34°37' E 134°56'816.3
2018-Feb-15 17:00N 34°36' E 135°06'1020.1
2018-Feb-15 16:30N 34°38' E 135°18'4 8.3
2018-Feb-15 16:01N 34°42' E 135°17'0 0.0
2018-Feb-15 15:31N 34°42' E 135°17'0 0.0
2018-Feb-15 15:01N 34°42' E 135°17'0 0.0
2018-Feb-15 14:31N 34°42' E 135°17'3 5.9
2018-Feb-15 14:00N 34°39' E 135°19'815.5
2018-Feb-15 13:31N 34°35' E 135°11'918.2
2018-Feb-15 13:00N 34°37' E 135°00'1019.7
2018-Feb-15 12:30N 34°33' E 134°49'1019.6
2018-Feb-15 12:01N 34°29' E 134°38'1020.5
2018-Feb-15 11:30N 34°25' E 134°27'1019.6
2018-Feb-15 11:00N 34°23' E 134°15'13 0.9
2018-Feb-14 20:06N 34°25' E 133°59'113.4
2018-Feb-14 20:00N 34°26' E 134°01'816.0
2018-Feb-14 19:29N 34°25' E 134°11'919.8
2018-Feb-14 19:01N 34°25' E 134°22'1020.8
2018-Feb-14 18:31N 34°29' E 134°34'1020.4
2018-Feb-14 18:01N 34°33' E 134°45'1019.0
2018-Feb-14 17:30N 34°37' E 134°56'917.4
2018-Feb-14 17:00N 34°36' E 135°06'1019.9
2018-Feb-14 16:30N 34°38' E 135°18'4 7.8
2018-Feb-14 16:01N 34°42' E 135°17'0 0.0
2018-Feb-14 15:31N 34°42' E 135°17'0 0.0
2018-Feb-14 15:00N 34°42' E 135°17'0 0.4
2018-Feb-14 14:30N 34°42' E 135°17'611.3
2018-Feb-14 14:00N 34°36' E 135°18'918.1
2018-Feb-14 13:30N 34°34' E 135°07'816.9
2018-Feb-14 13:00N 34°37' E 134°58'1019.3
2018-Feb-14 12:30N 34°32' E 134°47'1019.6
2018-Feb-14 12:01N 34°29' E 134°36'1019.8
2018-Feb-14 11:30N 34°25' E 134°25'1019.0
2018-Feb-14 11:00N 34°24' E 134°13'10 0.6
2018-Feb-13 19:55N 34°27' E 134°02'717.4
2018-Feb-13 19:29N 34°25' E 134°11'1020.0
2018-Feb-13 19:01N 34°26' E 134°23'1020.7
2018-Feb-13 18:31N 34°29' E 134°34'1020.4
2018-Feb-13 18:01N 34°33' E 134°46'1019.3
2018-Feb-13 17:31N 34°37' E 134°57'917.8
2018-Feb-13 17:00N 34°36' E 135°08'1018.9
2018-Feb-13 16:30N 34°39' E 135°18'3 6.0
2018-Feb-13 16:00N 34°42' E 135°17'0 0.0
2018-Feb-13 15:31N 34°42' E 135°17'0 0.0
2018-Feb-13 15:01N 34°42' E 135°17'0 0.3
2018-Feb-13 14:31N 34°42' E 135°17'510.9
2018-Feb-13 14:00N 34°37' E 135°17'1019.2
2018-Feb-13 13:30N 34°34' E 135°06'815.0
2018-Feb-13 13:00N 34°36' E 134°57'918.1
2018-Feb-13 12:31N 34°32' E 134°47'918.9
2018-Feb-13 12:00N 34°28' E 134°36'1019.1
2018-Feb-13 11:30N 34°25' E 134°26'1019.2
2018-Feb-13 11:00N 34°24' E 134°14'  

Dump ship's entire track history